Overview Statistics Trail Chart Weather Telemetry Raw packets
 

This is the latest recevied weather packets stored in our database for station/object DG6YGE-6. If no packets are shown the sender has not sent any weather packets the latest 10 day(s).

<< 14 15 16 17 18 19 20 >>
Time Temp. Humidity Pressure Rain* Wind** Luminosity Snow
1788435551 17.78° C 89% 1014.6 hPa 0 mm - 54 W/m² -
1788434951 17.78° C 88% 1014.3 hPa 0 mm - 91 W/m² -
1788434351 17.78° C 88% 1014.4 hPa 0 mm - 140 W/m² -
1788433751 17.78° C 87% 1014.4 hPa 0 mm - 91 W/m² -
1788433151 17.78° C 87% 1014.3 hPa 0 mm - 73 W/m² -
1788432551 18.33° C 85% 1014.4 hPa 0 mm - 38 W/m² -
1788431951 18.33° C 85% 1014.4 hPa 0 mm - 45 W/m² -
1788431351 18.33° C 85% 1014.5 hPa 0 mm - 118 W/m² -
1788430751 18.33° C 84% 1014.5 hPa 0 mm - 76 W/m² -
1788430150 18.33° C 82% 1014.4 hPa 0 mm - 68 W/m² -
1788429551 18.89° C 80% 1014.5 hPa 0 mm - 53 W/m² -
1788428950 18.89° C 79% 1014.6 hPa 0 mm - 52 W/m² -
1788428351 18.89° C 78% 1014.4 hPa 0 mm - 82 W/m² -
1788427750 18.89° C 79% 1014.4 hPa 0 mm - 101 W/m² -
1788427151 18.89° C 78% 1014.5 hPa 0 mm - 78 W/m² -
1788426550 19.44° C 76% 1014.4 hPa 0 mm - 83 W/m² -
1788425951 19.44° C 75% 1014.4 hPa 0 mm - 96 W/m² -
1788425351 19.44° C 77% 1014.2 hPa 0 mm - 159 W/m² -
1788424750 18.89° C 77% 1014.2 hPa 0 mm - 200 W/m² -
1788424151 18.89° C 77% 1014.2 hPa 0 mm - 187 W/m² -
1788423550 18.89° C 78% 1014 hPa 0 mm - 336 W/m² -
1788422951 18.33° C 80% 1014.1 hPa 0 mm - 285 W/m² -
1788422351 18.33° C 79% 1014.6 hPa 0 mm - 103 W/m² -
1788421752 18.33° C 79% 1014.7 hPa 0 mm - 97 W/m² -
1788421151 18.33° C 79% 1014.4 hPa 0 mm - 126 W/m² -

* Rain latest hour (hover to see other rain measurements)
** Current wind speed in m/s (hover to see current wind gust speed)